Portada
METAR-TAF:

METAR-TAF

Aeroports :

Malakula, Vanuatu

latitud: 16-27-26S, longitud: 167-49-42E, altitud: 2 m

METAR: manca

Hora: 21:40 (10:40 UTC)

Pronòstic

L'informe es va fer fa 6 hores i 10 minuts, a les 04:30 UTC
Pronòstic vàlid del 17 a les 06 UTC al 18 a les 06 UTC
Vent 6 kt del Sud-Est
Visibilitat 10 km o més
Núvols disperses a una alçada de 2200 ft
Probabilitat 30%
entre IN i TE UTC
Visibilitat: 9000 m
Cel ennuvolat a una alçada de 1800 ft
xàfecs de pluja

TAF: NVSL 170430Z 1706/1806 14006KT 9999 SCT022 PROB30 INTER 1706/1712 9000 -SHRA BKN018

Observacions i pronòstics meteorològics de més de 4000 aeroports (METAR i TAF).

Les estacions disponibles són els punts grocs i vermells al mapa.

Posi el ratolí al punt desitjat per veure el nom de l'estació.

Feu clic per veure les observacions i els pronòstics meteorològics.

Per canviar el mapa: feu clic els botons verds amb una creu de color negre per apropar; al botó verd amb un guió per allunyar la imatge; o en les fletxes verdes per a mapes adjacents.


METAR-TAF: